Thompson, Missouri
Current Conditions -  °F | °C
As of 2:54 AM on Wednesday 22 Oct 2014 (Local Time) from KCOU Reporting Station
Clear Clear  
Wind Chill:   Ceiling: Unl
Heat Index:   Visibility: 10mi
Dew Point:   Wind: 8mph
Humidity: 79%   Direction: 90°E
Pressure: 30.2"   Gusts: NA
Location:  39.19°N, 91.98°W
Report Text: KCOU 220754Z AUTO 09007KT 10SM CLR 08/04 A3020 RMK AO2 SLP224 T00780044
Loading
Personal Weather Stations






























Interactive Weather Map
Tropical Storm Tracking
New forecast layout! Learn more

10-Day Weather Forecast

Advertisements
Track Severe Weather on mobile